ETD9MA KIAD-OMAA
Flight info
| Callsign | ETD9MA |
|---|---|
| Flight time | N/A |
| Altitude | 33000 |
| Route | JERES2 JERES Q221 MICAH DCT HNK DCT PONCT DCT MOBAL DCT BAREE N793B JANJO/M085F360 NATV NETKI/N0483F370 DCT CON DCT MORAG DCT NUCHU DCT BOGNA UL612 XAMAB DCT VEULE DCT INPAX DCT RESMI DCT ODEBU DCT OGULO DCT OKASI DCT OKEKO DCT MOU DCT MADIV DCT MOKIP DCT TUFTA DCT KOGAS DCT MEDAM DCT NITAM DCT MOGBO DCT BELIX/N0481F390 DCT SALUN N705 MMA P751 DASUM Y234 FYM M872 BDB Y214 RAPMA DCT KUVSO DCT KATIT DCT DANUX DCT TANSU/N0461F330 G783 VAVIM P899 ROVOS |
| Aircraft | B789/H-SDE1E2E3FGHIJ2J3J4J5M1RWXY/LB1D1 |
Departure
| Time | N/A |
|---|---|
| Airport | Washington Dulles International Airport (KIAD) |
Arrival
| Time | 2026-04-30 11:50 |
|---|---|
| Airport | Zayed International Airport (OMAA) |
| Time | Latitude | Longitude | Altitude | Speed | Heading |
|---|---|---|---|---|---|
| 2026-04-30 10:02 | 24.44205 | 40.77377 | 38987 ft | 561 kts | 98° |
| 2026-04-30 10:02 | 24.43766 | 40.81657 | 38989 ft | 563 kts | 98° |
| 2026-04-30 10:03 | 24.42885 | 40.90212 | 38995 ft | 564 kts | 98° |
| 2026-04-30 10:03 | 24.42001 | 40.98745 | 38987 ft | 561 kts | 98° |
| 2026-04-30 10:04 | 24.41116 | 41.07240 | 38987 ft | 560 kts | 99° |
| 2026-04-30 10:04 | 24.40228 | 41.15739 | 38986 ft | 559 kts | 99° |
| 2026-04-30 10:05 | 24.39344 | 41.24142 | 38990 ft | 557 kts | 99° |
| 2026-04-30 10:05 | 24.38450 | 41.32594 | 38990 ft | 558 kts | 99° |
| 2026-04-30 10:06 | 24.37552 | 41.41052 | 38987 ft | 558 kts | 99° |
| 2026-04-30 10:06 | 24.36650 | 41.49493 | 38986 ft | 556 kts | 99° |
| 2026-04-30 10:07 | 24.35746 | 41.57913 | 38983 ft | 555 kts | 99° |
| 2026-04-30 10:07 | 24.34840 | 41.66305 | 38983 ft | 554 kts | 99° |
| 2026-04-30 10:08 | 24.33928 | 41.74702 | 38983 ft | 556 kts | 99° |
| 2026-04-30 10:08 | 24.32893 | 41.83091 | 39005 ft | 552 kts | 108° |
| 2026-04-30 10:09 | 24.30791 | 41.91188 | 38992 ft | 553 kts | 110° |
| 2026-04-30 10:09 | 24.28658 | 41.99296 | 38984 ft | 553 kts | 110° |
| 2026-04-30 10:10 | 24.26533 | 42.07373 | 38986 ft | 550 kts | 110° |
| 2026-04-30 10:10 | 24.24407 | 42.15411 | 38983 ft | 549 kts | 110° |
| 2026-04-30 10:11 | 24.22279 | 42.23455 | 38983 ft | 550 kts | 110° |
| 2026-04-30 10:11 | 24.20145 | 42.31495 | 38987 ft | 549 kts | 110° |
| 2026-04-30 10:12 | 24.18010 | 42.39526 | 38987 ft | 549 kts | 110° |
| 2026-04-30 10:12 | 24.15874 | 42.47539 | 38983 ft | 547 kts | 110° |
| 2026-04-30 10:13 | 24.13740 | 42.55522 | 38984 ft | 547 kts | 110° |
| 2026-04-30 10:13 | 24.11612 | 42.63471 | 38992 ft | 547 kts | 110° |
| 2026-04-30 10:14 | 24.09474 | 42.71438 | 38992 ft | 545 kts | 110° |
| 2026-04-30 10:14 | 24.06266 | 42.83358 | 38992 ft | 544 kts | 110° |
| 2026-04-30 10:15 | 24.04124 | 42.91293 | 38993 ft | 544 kts | 110° |
| 2026-04-30 10:15 | 24.01975 | 42.99233 | 38991 ft | 544 kts | 110° |
| 2026-04-30 10:16 | 23.99825 | 43.07163 | 38992 ft | 543 kts | 111° |
| 2026-04-30 10:17 | 23.96602 | 43.19013 | 38986 ft | 542 kts | 111° |
| 2026-04-30 10:17 | 23.93369 | 43.30864 | 38993 ft | 542 kts | 111° |
| 2026-04-30 10:18 | 23.91210 | 43.38751 | 38995 ft | 541 kts | 111° |
| 2026-04-30 10:19 | 23.87977 | 43.50538 | 38981 ft | 538 kts | 111° |
| 2026-04-30 10:19 | 23.85820 | 43.58376 | 38972 ft | 539 kts | 111° |
| 2026-04-30 10:20 | 23.83660 | 43.66213 | 38981 ft | 538 kts | 111° |
| 2026-04-30 10:20 | 23.80438 | 43.77867 | 38963 ft | 536 kts | 111° |
| 2026-04-30 10:21 | 23.78277 | 43.85664 | 38950 ft | 536 kts | 111° |
| 2026-04-30 10:21 | 23.77016 | 43.93717 | 38958 ft | 544 kts | 98° |
| 2026-04-30 10:22 | 23.76430 | 44.01965 | 38949 ft | 546 kts | 98° |
| 2026-04-30 10:22 | 23.75805 | 44.10214 | 38943 ft | 544 kts | 98° |
| 2026-04-30 10:23 | 23.75191 | 44.18440 | 38951 ft | 545 kts | 98° |
| 2026-04-30 10:23 | 23.74567 | 44.26692 | 38937 ft | 546 kts | 98° |
| 2026-04-30 10:24 | 23.73940 | 44.34930 | 38937 ft | 544 kts | 98° |
| 2026-04-30 10:24 | 23.73311 | 44.43147 | 38919 ft | 543 kts | 98° |
| 2026-04-30 10:25 | 23.72677 | 44.51345 | 38931 ft | 542 kts | 98° |
| 2026-04-30 10:25 | 23.72040 | 44.59550 | 38935 ft | 543 kts | 98° |
| 2026-04-30 10:26 | 23.71401 | 44.67713 | 38937 ft | 543 kts | 98° |
| 2026-04-30 10:26 | 23.70754 | 44.75928 | 38928 ft | 543 kts | 98° |
| 2026-04-30 10:27 | 23.70102 | 44.84145 | 38934 ft | 543 kts | 98° |
| 2026-04-30 10:27 | 23.69447 | 44.92356 | 38932 ft | 543 kts | 98° |
| 2026-04-30 10:28 | 23.68785 | 45.00571 | 38928 ft | 545 kts | 98° |
| 2026-04-30 10:28 | 23.68120 | 45.08794 | 38935 ft | 543 kts | 98° |
| 2026-04-30 10:29 | 23.67452 | 45.16980 | 38927 ft | 541 kts | 98° |
| 2026-04-30 10:29 | 23.66781 | 45.25155 | 38936 ft | 541 kts | 98° |
| 2026-04-30 10:30 | 23.66108 | 45.33321 | 38933 ft | 541 kts | 98° |
| 2026-04-30 10:30 | 23.65427 | 45.41505 | 38937 ft | 542 kts | 98° |
| 2026-04-30 10:31 | 23.64741 | 45.49709 | 38942 ft | 544 kts | 98° |
| 2026-04-30 10:31 | 23.64050 | 45.57931 | 38921 ft | 543 kts | 98° |
| 2026-04-30 10:32 | 23.63360 | 45.66082 | 38923 ft | 538 kts | 98° |
| 2026-04-30 10:32 | 23.62665 | 45.74210 | 38921 ft | 538 kts | 98° |
| 2026-04-30 10:33 | 23.61968 | 45.82342 | 38924 ft | 539 kts | 99° |
| 2026-04-30 10:33 | 23.61266 | 45.90467 | 38924 ft | 538 kts | 99° |
| 2026-04-30 10:34 | 23.60679 | 45.97223 | 38923 ft | 538 kts | 99° |
| 2026-04-30 10:34 | 23.59969 | 46.05345 | 38929 ft | 538 kts | 99° |
| 2026-04-30 10:35 | 23.59256 | 46.13458 | 38933 ft | 538 kts | 99° |
| 2026-04-30 10:35 | 23.58539 | 46.21576 | 38934 ft | 538 kts | 99° |
| 2026-04-30 10:36 | 23.57817 | 46.29691 | 38940 ft | 538 kts | 99° |
| 2026-04-30 10:36 | 23.57092 | 46.37793 | 38942 ft | 536 kts | 99° |
| 2026-04-30 10:37 | 23.56364 | 46.45884 | 38943 ft | 537 kts | 99° |
| 2026-04-30 10:37 | 23.55636 | 46.53926 | 38949 ft | 537 kts | 99° |
| 2026-04-30 10:38 | 23.54900 | 46.62007 | 38942 ft | 535 kts | 99° |
| 2026-04-30 10:38 | 23.54163 | 46.70055 | 38939 ft | 533 kts | 99° |
| 2026-04-30 10:39 | 23.53422 | 46.78099 | 38935 ft | 535 kts | 99° |
| 2026-04-30 10:39 | 23.52675 | 46.86168 | 38931 ft | 535 kts | 99° |
| 2026-04-30 10:40 | 23.51923 | 46.94235 | 38925 ft | 535 kts | 99° |
| 2026-04-30 10:40 | 23.51168 | 47.02300 | 38924 ft | 535 kts | 99° |
| 2026-04-30 10:41 | 23.50409 | 47.10355 | 38919 ft | 534 kts | 99° |
| 2026-04-30 10:41 | 23.49646 | 47.18406 | 38905 ft | 533 kts | 99° |
| 2026-04-30 10:42 | 23.48880 | 47.26444 | 38906 ft | 534 kts | 99° |
| 2026-04-30 10:42 | 23.48113 | 47.34453 | 38909 ft | 536 kts | 99° |
| 2026-04-30 10:43 | 23.47336 | 47.42529 | 38907 ft | 536 kts | 99° |
| 2026-04-30 10:43 | 23.46554 | 47.50593 | 38899 ft | 535 kts | 99° |
| 2026-04-30 10:44 | 23.45772 | 47.58635 | 38898 ft | 534 kts | 99° |
| 2026-04-30 10:44 | 23.44986 | 47.66670 | 38894 ft | 533 kts | 99° |
| 2026-04-30 10:45 | 23.44198 | 47.74680 | 38888 ft | 531 kts | 99° |
| 2026-04-30 10:45 | 23.43407 | 47.82682 | 38889 ft | 532 kts | 99° |
| 2026-04-30 10:46 | 23.42609 | 47.90707 | 38881 ft | 534 kts | 99° |
| 2026-04-30 10:46 | 23.41805 | 47.98755 | 38883 ft | 535 kts | 99° |
| 2026-04-30 10:47 | 23.40997 | 48.06807 | 38877 ft | 535 kts | 99° |
| 2026-04-30 10:47 | 23.40183 | 48.14863 | 38880 ft | 535 kts | 99° |
| 2026-04-30 10:48 | 23.39365 | 48.22921 | 38864 ft | 536 kts | 99° |
| 2026-04-30 10:48 | 23.38546 | 48.30959 | 38850 ft | 532 kts | 99° |
| 2026-04-30 10:49 | 23.38035 | 48.38987 | 38864 ft | 533 kts | 95° |
| 2026-04-30 10:49 | 23.37703 | 48.47058 | 38866 ft | 534 kts | 95° |
| 2026-04-30 10:50 | 23.37380 | 48.55121 | 38868 ft | 533 kts | 95° |
| 2026-04-30 10:50 | 23.37048 | 48.63134 | 38863 ft | 533 kts | 95° |
| 2026-04-30 10:51 | 23.36714 | 48.71193 | 38858 ft | 532 kts | 95° |
| 2026-04-30 10:51 | 23.36375 | 48.79227 | 38854 ft | 530 kts | 95° |
| 2026-04-30 10:52 | 23.36033 | 48.87238 | 38849 ft | 530 kts | 95° |
| 2026-04-30 10:52 | 23.35688 | 48.95251 | 38843 ft | 529 kts | 95° |
| 2026-04-30 10:53 | 23.35338 | 49.03238 | 38841 ft | 528 kts | 95° |
| 2026-04-30 10:53 | 23.34543 | 49.11142 | 38854 ft | 525 kts | 102° |
| 2026-04-30 10:54 | 23.33410 | 49.18934 | 38852 ft | 519 kts | 102° |
| 2026-04-30 10:54 | 23.32302 | 49.26708 | 38853 ft | 520 kts | 102° |
| 2026-04-30 10:55 | 23.31173 | 49.34494 | 38852 ft | 521 kts | 102° |
| 2026-04-30 10:55 | 23.30047 | 49.42295 | 38855 ft | 523 kts | 102° |
| 2026-04-30 10:56 | 23.28913 | 49.50095 | 38845 ft | 521 kts | 102° |
| 2026-04-30 10:56 | 23.27783 | 49.57852 | 38841 ft | 518 kts | 102° |
| 2026-04-30 10:57 | 23.26658 | 49.65538 | 38842 ft | 518 kts | 102° |
| 2026-04-30 10:57 | 23.25525 | 49.73256 | 38840 ft | 517 kts | 102° |
| 2026-04-30 10:58 | 23.24385 | 49.80987 | 38843 ft | 519 kts | 102° |
| 2026-04-30 10:58 | 23.23239 | 49.88743 | 38847 ft | 520 kts | 102° |
| 2026-04-30 10:59 | 23.22085 | 49.96521 | 38851 ft | 521 kts | 102° |
| 2026-04-30 10:59 | 23.20931 | 50.04275 | 38834 ft | 518 kts | 102° |
| 2026-04-30 11:00 | 23.19779 | 50.11978 | 38836 ft | 516 kts | 102° |
| 2026-04-30 11:00 | 23.18625 | 50.19675 | 38835 ft | 516 kts | 102° |
| 2026-04-30 11:01 | 23.17469 | 50.27367 | 38835 ft | 516 kts | 102° |
| 2026-04-30 11:01 | 23.16307 | 50.35062 | 38839 ft | 516 kts | 102° |
| 2026-04-30 11:02 | 23.15141 | 50.42763 | 38839 ft | 516 kts | 102° |
| 2026-04-30 11:02 | 23.13970 | 50.50465 | 38836 ft | 517 kts | 102° |
| 2026-04-30 11:03 | 23.12794 | 50.58178 | 38834 ft | 517 kts | 102° |
| 2026-04-30 11:04 | 23.11031 | 50.69693 | 38827 ft | 514 kts | 102° |
| 2026-04-30 11:04 | 23.09851 | 50.77366 | 38827 ft | 516 kts | 102° |
| 2026-04-30 11:05 | 23.08663 | 50.85071 | 38831 ft | 518 kts | 102° |
| 2026-04-30 11:05 | 23.07477 | 50.92737 | 38830 ft | 517 kts | 102° |
| 2026-04-30 11:06 | 23.06284 | 51.00418 | 38828 ft | 516 kts | 102° |
| 2026-04-30 11:06 | 23.05087 | 51.08099 | 38825 ft | 515 kts | 102° |
| 2026-04-30 11:07 | 23.03891 | 51.15750 | 38823 ft | 512 kts | 102° |
| 2026-04-30 11:07 | 23.02696 | 51.23369 | 38820 ft | 513 kts | 102° |
| 2026-04-30 11:08 | 23.01492 | 51.31025 | 38831 ft | 515 kts | 102° |
| 2026-04-30 11:08 | 23.00282 | 51.38694 | 38831 ft | 516 kts | 102° |
| 2026-04-30 11:09 | 22.99066 | 51.46376 | 38833 ft | 515 kts | 102° |
| 2026-04-30 11:09 | 22.97851 | 51.54024 | 38827 ft | 514 kts | 103° |
| 2026-04-30 11:10 | 22.96635 | 51.61652 | 38820 ft | 512 kts | 103° |
| 2026-04-30 11:10 | 22.95419 | 51.69258 | 38811 ft | 512 kts | 103° |
| 2026-04-30 11:11 | 22.94197 | 51.76875 | 38818 ft | 513 kts | 103° |
| 2026-04-30 11:11 | 22.92969 | 51.84512 | 38813 ft | 515 kts | 103° |
| 2026-04-30 11:12 | 22.91734 | 51.92164 | 38815 ft | 516 kts | 103° |
| 2026-04-30 11:12 | 22.90494 | 51.99823 | 38817 ft | 515 kts | 103° |
| 2026-04-30 11:13 | 22.89255 | 52.07456 | 38817 ft | 513 kts | 103° |
| 2026-04-30 11:13 | 22.88023 | 52.15017 | 38812 ft | 512 kts | 103° |
| 2026-04-30 11:14 | 22.86781 | 52.22615 | 38808 ft | 511 kts | 103° |
| 2026-04-30 11:14 | 22.85538 | 52.30198 | 38804 ft | 510 kts | 103° |
| 2026-04-30 11:15 | 22.84296 | 52.37756 | 38802 ft | 509 kts | 103° |
| 2026-04-30 11:15 | 22.83046 | 52.45329 | 38805 ft | 511 kts | 103° |
| 2026-04-30 11:16 | 22.81987 | 52.52961 | 38799 ft | 514 kts | 100° |
| 2026-04-30 11:16 | 22.81032 | 52.60635 | 38805 ft | 513 kts | 101° |
| 2026-04-30 11:17 | 22.80122 | 52.68298 | 38811 ft | 512 kts | 101° |
| 2026-04-30 11:17 | 22.79187 | 52.75947 | 38800 ft | 511 kts | 101° |
| 2026-04-30 11:18 | 22.78260 | 52.83577 | 38797 ft | 510 kts | 101° |
| 2026-04-30 11:18 | 22.76867 | 52.94941 | 38794 ft | 508 kts | 101° |
| 2026-04-30 11:19 | 22.75933 | 53.02543 | 38790 ft | 510 kts | 101° |
| 2026-04-30 11:19 | 22.74991 | 53.10160 | 38794 ft | 511 kts | 101° |
| 2026-04-30 11:20 | 22.74044 | 53.17799 | 38795 ft | 512 kts | 101° |
| 2026-04-30 11:20 | 22.73091 | 53.25449 | 38802 ft | 513 kts | 101° |
| 2026-04-30 11:21 | 22.72134 | 53.33105 | 38801 ft | 513 kts | 101° |
| 2026-04-30 11:21 | 22.71172 | 53.40769 | 38801 ft | 513 kts | 101° |
| 2026-04-30 11:22 | 22.70208 | 53.48424 | 38801 ft | 512 kts | 101° |
| 2026-04-30 11:22 | 22.69241 | 53.56062 | 38781 ft | 512 kts | 101° |
| 2026-04-30 11:23 | 22.68438 | 53.62396 | 38779 ft | 510 kts | 101° |
| 2026-04-30 11:24 | 22.66983 | 53.73799 | 38782 ft | 510 kts | 101° |
| 2026-04-30 11:24 | 22.66007 | 53.81416 | 38776 ft | 512 kts | 102° |
| 2026-04-30 11:25 | 22.64529 | 53.92898 | 38783 ft | 513 kts | 102° |
| 2026-04-30 11:26 | 22.62546 | 54.08190 | 38776 ft | 514 kts | 102° |
| 2026-04-30 11:26 | 22.61546 | 54.15865 | 38779 ft | 515 kts | 102° |
| 2026-04-30 11:27 | 22.60788 | 54.23562 | 38803 ft | 517 kts | 90° |
| 2026-04-30 11:27 | 22.61183 | 54.27442 | 38809 ft | 522 kts | 79° |
| 2026-04-30 11:27 | 22.62229 | 54.31216 | 38808 ft | 527 kts | 68° |
| 2026-04-30 11:28 | 22.66935 | 54.41997 | 38588 ft | 524 kts | 66° |
| 2026-04-30 11:28 | 22.68515 | 54.45560 | 37657 ft | 528 kts | 64° |
| 2026-04-30 11:29 | 22.70426 | 54.48895 | 36866 ft | 529 kts | 51° |
| 2026-04-30 11:29 | 22.72929 | 54.51807 | 36089 ft | 528 kts | 39° |
| 2026-04-30 11:29 | 22.79181 | 54.55805 | 34529 ft | 521 kts | 16° |
| 2026-04-30 11:30 | 22.86133 | 54.57883 | 32785 ft | 519 kts | 12° |
| 2026-04-30 11:30 | 22.89631 | 54.58889 | 31730 ft | 522 kts | 12° |
| 2026-04-30 11:30 | 22.93147 | 54.59939 | 30689 ft | 526 kts | 13° |
| 2026-04-30 11:31 | 22.96638 | 54.60981 | 30206 ft | 514 kts | 13° |
| 2026-04-30 11:31 | 23.00112 | 54.61995 | 29143 ft | 518 kts | 12° |
| 2026-04-30 11:31 | 23.03571 | 54.62998 | 28477 ft | 511 kts | 12° |
| 2026-04-30 11:31 | 23.06984 | 54.64005 | 27766 ft | 505 kts | 12° |
| 2026-04-30 11:32 | 23.10349 | 54.65003 | 27080 ft | 499 kts | 12° |
| 2026-04-30 11:32 | 23.13684 | 54.65984 | 26398 ft | 493 kts | 12° |
| 2026-04-30 11:32 | 23.16978 | 54.66949 | 25734 ft | 487 kts | 12° |
| 2026-04-30 11:33 | 23.23451 | 54.68859 | 24425 ft | 477 kts | 12° |
| 2026-04-30 11:33 | 23.26635 | 54.69799 | 23804 ft | 472 kts | 11° |
| 2026-04-30 11:33 | 23.29792 | 54.70729 | 23078 ft | 468 kts | 11° |
| 2026-04-30 11:33 | 23.32922 | 54.71651 | 22351 ft | 463 kts | 11° |
| 2026-04-30 11:34 | 23.36013 | 54.72564 | 21624 ft | 458 kts | 11° |
| 2026-04-30 11:34 | 23.39072 | 54.73469 | 20917 ft | 453 kts | 11° |
| 2026-04-30 11:34 | 23.42101 | 54.74365 | 20222 ft | 448 kts | 11° |
| 2026-04-30 11:34 | 23.45095 | 54.75250 | 19524 ft | 444 kts | 12° |
| 2026-04-30 11:35 | 23.48055 | 54.76125 | 18861 ft | 439 kts | 12° |
| 2026-04-30 11:35 | 23.50989 | 54.76994 | 18186 ft | 435 kts | 12° |
| 2026-04-30 11:35 | 23.53866 | 54.77846 | 17473 ft | 430 kts | 12° |
| 2026-04-30 11:35 | 23.56752 | 54.78702 | 16795 ft | 423 kts | 12° |
| 2026-04-30 11:36 | 23.59579 | 54.79539 | 16097 ft | 418 kts | 12° |
| 2026-04-30 11:36 | 23.62361 | 54.80364 | 15456 ft | 411 kts | 12° |
| 2026-04-30 11:36 | 23.65109 | 54.81179 | 14792 ft | 406 kts | 13° |
| 2026-04-30 11:36 | 23.67805 | 54.81980 | 14155 ft | 400 kts | 13° |
| 2026-04-30 11:37 | 23.70478 | 54.82774 | 13512 ft | 394 kts | 13° |
| 2026-04-30 11:37 | 23.73113 | 54.83557 | 12748 ft | 390 kts | 13° |
| 2026-04-30 11:37 | 23.75717 | 54.84330 | 12021 ft | 386 kts | 13° |
| 2026-04-30 11:37 | 23.78299 | 54.85097 | 11295 ft | 382 kts | 13° |
| 2026-04-30 11:38 | 23.80849 | 54.85856 | 10569 ft | 378 kts | 13° |
| 2026-04-30 11:38 | 23.83346 | 54.86599 | 9858 ft | 375 kts | 13° |
| 2026-04-30 11:38 | 23.85853 | 54.87345 | 9110 ft | 372 kts | 13° |
| 2026-04-30 11:38 | 23.88218 | 54.88053 | 8535 ft | 336 kts | 13° |
| 2026-04-30 11:39 | 23.90385 | 54.88701 | 7814 ft | 311 kts | 13° |
| 2026-04-30 11:39 | 23.92456 | 54.89313 | 7528 ft | 304 kts | 13° |
| 2026-04-30 11:39 | 23.94454 | 54.89908 | 7241 ft | 295 kts | 13° |
| 2026-04-30 11:39 | 23.96417 | 54.90493 | 6988 ft | 293 kts | 13° |
| 2026-04-30 11:40 | 23.98390 | 54.91081 | 6746 ft | 294 kts | 13° |
| 2026-04-30 11:40 | 24.00363 | 54.91670 | 6511 ft | 294 kts | 13° |
| 2026-04-30 11:40 | 24.02330 | 54.92216 | 6270 ft | 290 kts | 6° |
| 2026-04-30 11:40 | 24.04318 | 54.92025 | 6024 ft | 285 kts | 342° |
| 2026-04-30 11:41 | 24.06223 | 54.91420 | 5780 ft | 285 kts | 341° |
| 2026-04-30 11:41 | 24.08137 | 54.90899 | 5552 ft | 282 kts | 347° |
| 2026-04-30 11:41 | 24.10060 | 54.90546 | 5318 ft | 278 kts | 350° |
| 2026-04-30 11:41 | 24.11956 | 54.90217 | 5077 ft | 274 kts | 350° |
| 2026-04-30 11:42 | 24.13824 | 54.89850 | 4848 ft | 270 kts | 349° |
| 2026-04-30 11:42 | 24.15660 | 54.89476 | 4616 ft | 268 kts | 350° |
| 2026-04-30 11:42 | 24.17462 | 54.89118 | 4366 ft | 259 kts | 351° |
| 2026-04-30 11:42 | 24.19241 | 54.88772 | 4126 ft | 258 kts | 350° |
| 2026-04-30 11:43 | 24.21012 | 54.88423 | 3892 ft | 255 kts | 350° |
| 2026-04-30 11:43 | 24.22725 | 54.88085 | 3633 ft | 245 kts | 350° |
| 2026-04-30 11:43 | 24.24377 | 54.87758 | 3377 ft | 237 kts | 350° |
| 2026-04-30 11:43 | 24.25974 | 54.87444 | 3129 ft | 229 kts | 349° |
| 2026-04-30 11:44 | 24.27516 | 54.87138 | 2906 ft | 219 kts | 349° |
| 2026-04-30 11:44 | 24.28972 | 54.86850 | 2697 ft | 207 kts | 349° |
| 2026-04-30 11:44 | 24.30285 | 54.86332 | 2435 ft | 203 kts | 325° |
| 2026-04-30 11:44 | 24.31283 | 54.85238 | 2203 ft | 201 kts | 314° |
| 2026-04-30 11:45 | 24.32169 | 54.84055 | 1996 ft | 201 kts | 311° |
| 2026-04-30 11:45 | 24.33024 | 54.82858 | 1993 ft | 199 kts | 311° |
| 2026-04-30 11:45 | 24.33875 | 54.81659 | 1994 ft | 198 kts | 310° |
| 2026-04-30 11:45 | 24.34693 | 54.80503 | 1997 ft | 182 kts | 309° |
| 2026-04-30 11:46 | 24.35436 | 54.79448 | 1981 ft | 171 kts | 310° |
| 2026-04-30 11:46 | 24.36158 | 54.78429 | 1975 ft | 166 kts | 309° |
| 2026-04-30 11:46 | 24.36864 | 54.77434 | 1980 ft | 168 kts | 308° |
| 2026-04-30 11:46 | 24.37579 | 54.76421 | 1977 ft | 168 kts | 309° |
| 2026-04-30 11:47 | 24.38312 | 54.75387 | 1860 ft | 172 kts | 309° |
| 2026-04-30 11:47 | 24.39002 | 54.74404 | 1642 ft | 152 kts | 310° |
| 2026-04-30 11:47 | 24.39663 | 54.73491 | 1464 ft | 160 kts | 310° |
| 2026-04-30 11:47 | 24.40343 | 54.72528 | 1262 ft | 156 kts | 310° |
| 2026-04-30 11:48 | 24.40982 | 54.71610 | 1044 ft | 148 kts | 308° |
| 2026-04-30 11:48 | 24.41607 | 54.70728 | 895 ft | 146 kts | 310° |
| 2026-04-30 11:48 | 24.42254 | 54.69826 | 732 ft | 156 kts | 310° |
| 2026-04-30 11:48 | 24.42925 | 54.68868 | 537 ft | 160 kts | 310° |
| 2026-04-30 11:49 | 24.43604 | 54.67902 | 322 ft | 156 kts | 310° |
| 2026-04-30 11:49 | 24.44263 | 54.66985 | 124 ft | 150 kts | 310° |
| 2026-04-30 11:49 | 24.44843 | 54.66171 | 86 ft | 115 kts | 308° |
| 2026-04-30 11:49 | 24.45214 | 54.65647 | 87 ft | 62 kts | 308° |
| 2026-04-30 11:50 | 24.45402 | 54.65321 | 83 ft | 38 kts | 284° |
| 2026-04-30 11:50 | 24.45426 | 54.65159 | 80 ft | 13 kts | 278° |
| 2026-04-30 11:50 | 24.45441 | 54.65056 | 83 ft | 14 kts | 279° |
| 2026-04-30 11:50 | 24.45476 | 54.64965 | 84 ft | 11 kts | 285° |
| 2026-04-30 11:51 | 24.45450 | 54.64910 | 86 ft | 7 kts | 207° |
| 2026-04-30 11:51 | 24.45404 | 54.64919 | 82 ft | 9 kts | 141° |
| 2026-04-30 11:51 | 24.45351 | 54.64987 | 84 ft | 14 kts | 127° |
| 2026-04-30 11:51 | 24.45290 | 54.65077 | 86 ft | 15 kts | 127° |
| 2026-04-30 11:52 | 24.45223 | 54.65172 | 87 ft | 16 kts | 128° |
| 2026-04-30 11:52 | 24.45157 | 54.65235 | 87 ft | 9 kts | 176° |
| 2026-04-30 11:52 | 24.45105 | 54.65201 | 84 ft | 12 kts | 217° |
| 2026-04-30 11:52 | 24.45031 | 54.65138 | 85 ft | 14 kts | 218° |
| 2026-04-30 11:53 | 24.44970 | 54.65087 | 86 ft | 11 kts | 217° |
| 2026-04-30 11:53 | 24.44905 | 54.65032 | 86 ft | 12 kts | 218° |
| 2026-04-30 11:53 | 24.44838 | 54.64974 | 86 ft | 11 kts | 217° |
| 2026-04-30 11:53 | 24.44784 | 54.64928 | 86 ft | 9 kts | 220° |
| 2026-04-30 11:54 | 24.44769 | 54.64882 | 83 ft | 6 kts | 285° |
| 2026-04-30 11:54 | 24.44807 | 54.64822 | 85 ft | 14 kts | 309° |
| 2026-04-30 11:54 | 24.44873 | 54.64728 | 85 ft | 15 kts | 305° |
| 2026-04-30 11:54 | 24.44915 | 54.64636 | 83 ft | 12 kts | 289° |
| 2026-04-30 11:55 | 24.44930 | 54.64550 | 86 ft | 11 kts | 276° |
| 2026-04-30 11:55 | 24.44948 | 54.64510 | 83 ft | 4 kts | 330° |
| 2026-04-30 11:55 | 24.44989 | 54.64506 | 83 ft | 7 kts | 8° |
| 2026-04-30 11:55 | 24.45022 | 54.64513 | 86 ft | 2 kts | 8° |
| 2026-04-30 11:56 | 24.45032 | 54.64515 | 86 ft | 0 kts | 8° |